createdAt,value
2022-08-12T00:00:34.408Z,18.20
2022-08-12T00:03:20.817Z,18.17
2022-08-12T00:06:08.703Z,18.13
2022-08-12T00:08:56.879Z,18.08
2022-08-12T00:11:43.495Z,18.03
2022-08-12T00:14:29.362Z,17.99
2022-08-12T00:17:14.774Z,17.95
2022-08-12T00:20:00.045Z,17.92
2022-08-12T00:22:46.926Z,17.88
2022-08-12T00:26:21.101Z,17.86
2022-08-12T00:29:00.417Z,17.82
2022-08-12T00:31:45.208Z,17.78
2022-08-12T00:34:35.412Z,17.77
2022-08-12T00:37:21.248Z,17.73
2022-08-12T00:40:11.512Z,17.70
2022-08-12T00:42:41.271Z,17.69
2022-08-12T00:45:09.516Z,17.66
2022-08-12T00:47:37.649Z,17.63
2022-08-12T00:50:06.111Z,17.59
2022-08-12T00:52:34.818Z,17.57
2022-08-12T00:55:03.946Z,17.55
2022-08-12T00:57:37.165Z,17.53
2022-08-12T01:00:10.881Z,17.52
2022-08-12T01:02:40.846Z,17.48
2022-08-12T01:05:30.783Z,17.46
2022-08-12T01:08:16.217Z,17.42
2022-08-12T01:11:03.640Z,17.40
2022-08-12T01:13:32.809Z,17.35
2022-08-12T01:16:02.234Z,17.34
2022-08-12T01:18:31.158Z,17.31
2022-08-12T01:21:01.036Z,17.29
2022-08-12T01:23:27.535Z,17.27
2022-08-12T01:25:56.595Z,17.22
2022-08-12T01:28:26.796Z,17.19
2022-08-12T01:30:54.403Z,17.17
2022-08-12T01:33:22.223Z,17.15
2022-08-12T01:35:57.933Z,17.12
2022-08-12T01:38:36.224Z,17.09
2022-08-12T01:41:04.150Z,17.07
2022-08-12T01:43:31.924Z,17.07
2022-08-12T01:46:09.434Z,17.06
2022-08-12T01:49:02.922Z,17.05
2022-08-12T01:52:16.370Z,17.03
2022-08-12T01:54:31.823Z,16.98
2022-08-12T01:57:59.467Z,16.97
2022-08-12T02:00:13.718Z,16.91
2022-08-12T02:03:03.914Z,16.86
2022-08-12T02:05:58.405Z,16.93
2022-08-12T02:08:46.507Z,16.90
2022-08-12T02:11:26.243Z,16.87
2022-08-12T02:14:06.466Z,16.86
2022-08-12T02:16:46.331Z,16.93
2022-08-12T02:19:30.105Z,16.85
2022-08-12T02:22:35.764Z,16.82
2022-08-12T02:25:10.418Z,16.79
2022-08-12T02:27:46.426Z,16.76
2022-08-12T02:30:15.910Z,16.76
2022-08-12T02:32:44.642Z,16.77
2022-08-12T02:35:15.188Z,16.76
2022-08-12T02:37:43.254Z,16.76
2022-08-12T02:40:12.409Z,16.70
2022-08-12T02:42:54.983Z,16.75
2022-08-12T02:45:33.487Z,16.75
2022-08-12T02:48:06.436Z,16.76
2022-08-12T02:50:36.755Z,16.74
2022-08-12T02:53:04.453Z,16.83
2022-08-12T02:55:34.455Z,16.73
2022-08-12T02:58:08.962Z,16.69
2022-08-12T03:00:40.102Z,16.65
2022-08-12T03:03:10.057Z,16.61
2022-08-12T03:05:45.261Z,16.60
2022-08-12T03:08:25.725Z,16.55
2022-08-12T03:11:11.721Z,16.52
2022-08-12T03:13:42.316Z,16.49
2022-08-12T03:16:09.033Z,16.43
2022-08-12T03:18:35.819Z,16.42
2022-08-12T03:21:02.788Z,16.36
2022-08-12T03:23:31.352Z,16.35
2022-08-12T03:26:02.883Z,16.32
2022-08-12T03:28:51.829Z,16.29
2022-08-12T03:31:21.880Z,16.28
2022-08-12T03:34:02.107Z,16.25
2022-08-12T03:36:35.869Z,16.22
2022-08-12T03:39:18.601Z,16.19
2022-08-12T03:41:58.123Z,16.17
2022-08-12T03:44:56.438Z,16.16
2022-08-12T03:47:49.478Z,16.06
2022-08-12T03:50:36.433Z,16.09
2022-08-12T03:53:26.348Z,16.07
2022-08-12T03:56:13.247Z,16.04
2022-08-12T03:58:58.991Z,16.02
2022-08-12T04:01:26.921Z,15.99
2022-08-12T04:03:54.728Z,15.98
2022-08-12T04:06:35.624Z,15.99
2022-08-12T04:09:16.542Z,15.99
2022-08-12T04:12:03.773Z,15.96
2022-08-12T04:14:30.779Z,15.96
2022-08-12T04:16:57.843Z,15.95
2022-08-12T04:19:26.154Z,15.97
2022-08-12T04:22:01.953Z,15.98
2022-08-12T04:24:31.903Z,15.95
2022-08-12T04:26:58.413Z,15.99
2022-08-12T04:30:16.475Z,15.98
2022-08-12T04:32:13.892Z,15.99
2022-08-12T04:34:43.676Z,15.95
2022-08-12T04:37:12.077Z,16.00
2022-08-12T04:39:40.058Z,16.02
2022-08-12T04:42:06.771Z,16.02
2022-08-12T04:44:33.268Z,16.03
2022-08-12T04:47:00.138Z,16.06
2022-08-12T04:49:27.822Z,16.06
2022-08-12T04:51:59.198Z,16.11
2022-08-12T04:54:27.393Z,16.14
2022-08-12T04:57:04.402Z,16.18
2022-08-12T04:59:46.760Z,16.23
2022-08-12T05:02:21.652Z,16.22
2022-08-12T05:04:51.652Z,16.31
2022-08-12T05:07:18.884Z,16.34
2022-08-12T05:10:02.074Z,16.41
2022-08-12T05:12:34.672Z,16.48
2022-08-12T05:15:01.294Z,16.54
2022-08-12T05:17:28.315Z,16.59
2022-08-12T05:19:57.194Z,16.65
2022-08-12T05:22:26.096Z,16.73
2022-08-12T05:24:52.730Z,16.81
2022-08-12T05:27:19.143Z,16.85
2022-08-12T05:30:06.929Z,16.95
2022-08-12T05:32:35.456Z,17.05
2022-08-12T05:35:06.797Z,17.13
2022-08-12T05:37:35.518Z,17.22
2022-08-12T05:40:10.053Z,17.32
2022-08-12T05:42:37.997Z,17.45
2022-08-12T05:45:05.270Z,17.60
2022-08-12T05:47:53.105Z,17.80
2022-08-12T05:50:19.644Z,18.04
2022-08-12T05:52:46.086Z,18.18
2022-08-12T05:55:15.104Z,18.38
2022-08-12T05:57:41.522Z,18.51
2022-08-12T06:00:08.535Z,18.64
2022-08-12T06:02:35.039Z,18.78
2022-08-12T06:05:02.405Z,18.90
2022-08-12T06:08:00.840Z,19.04
2022-08-12T06:10:31.600Z,19.20
2022-08-12T06:12:58.870Z,19.30
2022-08-12T06:15:25.316Z,19.41
2022-08-12T06:17:51.731Z,19.51
2022-08-12T06:20:22.722Z,19.61
2022-08-12T06:22:56.548Z,19.71
2022-08-12T06:25:23.336Z,19.80
2022-08-12T06:28:07.903Z,19.88
2022-08-12T06:30:38.679Z,19.99
2022-08-12T06:33:11.692Z,20.09
2022-08-12T06:35:50.200Z,20.19
2022-08-12T06:38:25.244Z,20.33
2022-08-12T06:41:16.355Z,20.45
2022-08-12T06:44:04.484Z,20.54
2022-08-12T06:46:31.325Z,20.72
2022-08-12T06:48:59.328Z,20.85
2022-08-12T06:51:31.047Z,20.99
2022-08-12T06:53:59.129Z,21.11
2022-08-12T06:56:45.986Z,21.24
2022-08-12T06:59:14.120Z,21.41
2022-08-12T07:01:40.758Z,21.54
2022-08-12T07:04:35.680Z,21.69
2022-08-12T07:07:05.416Z,21.82
2022-08-12T07:10:06.982Z,22.00
2022-08-12T07:12:19.912Z,22.18
2022-08-12T07:14:51.531Z,22.32
2022-08-12T07:17:18.508Z,22.51
2022-08-12T07:19:46.771Z,22.68
2022-08-12T07:22:15.446Z,22.85
2022-08-12T07:24:42.265Z,23.00
2022-08-12T07:27:08.811Z,23.15
2022-08-12T07:30:02.578Z,23.29
2022-08-12T07:32:24.502Z,23.42
2022-08-12T07:34:54.530Z,23.55
2022-08-12T07:37:21.429Z,23.65
2022-08-12T07:39:50.116Z,23.77
2022-08-12T07:42:25.125Z,23.91
2022-08-12T07:44:53.334Z,24.04
2022-08-12T07:47:20.041Z,24.16
2022-08-12T07:50:05.148Z,24.30
2022-08-12T07:52:32.725Z,24.44
2022-08-12T07:54:59.954Z,24.56
2022-08-12T07:57:26.459Z,24.69
2022-08-12T07:59:55.947Z,24.81
2022-08-12T08:02:26.907Z,25.04
2022-08-12T08:04:57.182Z,25.27
2022-08-12T08:07:30.613Z,25.44
2022-08-12T08:09:59.407Z,25.61
2022-08-12T08:12:46.770Z,25.62
2022-08-12T08:15:14.893Z,25.77
2022-08-12T08:17:51.941Z,25.89
2022-08-12T08:20:28.246Z,25.98
2022-08-12T08:22:56.494Z,26.07
2022-08-12T08:25:36.529Z,26.16
2022-08-12T08:28:07.111Z,26.26
2022-08-12T08:30:34.958Z,26.32
2022-08-12T08:33:01.361Z,26.40
2022-08-12T08:35:46.332Z,26.50
2022-08-12T08:38:18.628Z,26.59
2022-08-12T08:42:18.740Z,26.70
2022-08-12T08:44:04.541Z,26.81
2022-08-12T08:46:33.008Z,26.91
2022-08-12T08:49:01.414Z,27.06
2022-08-12T08:51:27.909Z,27.16
2022-08-12T08:53:54.321Z,27.32
2022-08-12T08:56:21.795Z,27.43
2022-08-12T08:58:49.527Z,27.56
2022-08-12T09:01:22.417Z,27.71
2022-08-12T09:05:07.789Z,27.82
2022-08-12T09:06:37.836Z,27.93
2022-08-12T09:09:13.072Z,28.14
2022-08-12T09:14:47.080Z,28.58
2022-08-12T09:17:21.260Z,28.80
2022-08-12T09:19:57.265Z,29.05
2022-08-12T09:22:29.279Z,29.37
2022-08-12T09:24:56.143Z,29.80
2022-08-12T09:30:15.794Z,30.69
2022-08-12T09:33:04.399Z,31.37
2022-08-12T09:35:43.094Z,31.60
2022-08-12T09:38:28.500Z,31.96
2022-08-12T09:42:08.603Z,32.46
2022-08-12T09:44:05.023Z,32.93
2022-08-12T09:46:34.487Z,33.44
2022-08-12T09:49:04.128Z,33.75
2022-08-12T09:51:43.745Z,34.20
2022-08-12T09:54:34.137Z,34.46
2022-08-12T09:58:53.871Z,34.83
2022-08-12T10:00:17.147Z,35.09
2022-08-12T10:03:32.351Z,35.64
2022-08-12T10:06:19.275Z,35.65
2022-08-12T10:08:52.499Z,35.89
2022-08-12T10:12:09.993Z,35.94
2022-08-12T10:14:34.519Z,36.15
2022-08-12T10:17:02.633Z,36.25
2022-08-12T10:19:36.140Z,36.39
2022-08-12T10:22:06.033Z,36.46
2022-08-12T10:25:04.566Z,36.61
2022-08-12T10:28:05.822Z,36.93
2022-08-12T10:30:39.913Z,37.11
2022-08-12T10:33:18.285Z,37.22
2022-08-12T10:35:45.780Z,37.35
2022-08-12T10:38:35.041Z,37.48
2022-08-12T10:41:22.514Z,37.64
2022-08-12T10:44:12.482Z,37.63
2022-08-12T10:46:45.860Z,37.63
2022-08-12T10:50:02.761Z,37.55
2022-08-12T10:52:33.434Z,37.64
2022-08-12T10:54:51.460Z,37.58
2022-08-12T10:58:15.664Z,37.58
2022-08-12T11:00:30.755Z,37.66
2022-08-12T11:04:24.246Z,37.63
2022-08-12T11:07:05.237Z,37.79
2022-08-12T11:08:37.583Z,37.77
2022-08-12T11:11:13.274Z,37.77
2022-08-12T11:13:46.575Z,37.79
2022-08-12T11:16:21.841Z,37.73
2022-08-12T11:18:55.582Z,37.67
2022-08-12T11:21:56.437Z,37.67
2022-08-12T11:24:30.010Z,37.68
2022-08-12T11:30:01.642Z,37.87
2022-08-12T11:32:16.596Z,38.05
2022-08-12T11:34:53.506Z,38.20
2022-08-12T11:37:24.776Z,38.25
2022-08-12T11:42:37.366Z,38.39
2022-08-12T11:45:11.093Z,38.57
2022-08-12T11:47:40.415Z,38.54
2022-08-12T11:50:07.764Z,38.53
2022-08-12T11:52:55.576Z,38.80
2022-08-12T11:55:23.131Z,38.73
2022-08-12T11:58:44.056Z,38.87
2022-08-12T12:03:43.742Z,38.97
2022-08-12T12:06:17.908Z,39.16
2022-08-12T12:08:50.885Z,39.08
2022-08-12T12:11:19.636Z,39.11
2022-08-12T12:14:08.228Z,39.21
2022-08-12T12:16:33.567Z,39.23
2022-08-12T12:19:05.466Z,39.28
2022-08-12T12:21:48.130Z,39.32
2022-08-12T12:24:21.669Z,39.47
2022-08-12T12:27:00.441Z,39.40
2022-08-12T12:30:18.044Z,39.46
2022-08-12T12:32:19.512Z,39.32
2022-08-12T12:35:14.530Z,39.26
2022-08-12T12:37:59.026Z,39.25
2022-08-12T12:40:32.706Z,39.12
2022-08-12T12:43:05.290Z,39.10
2022-08-12T12:45:35.446Z,39.04
2022-08-12T12:48:07.915Z,39.03
2022-08-12T12:50:51.804Z,38.99
2022-08-12T12:54:06.305Z,38.86
2022-08-12T12:56:20.867Z,38.69
2022-08-12T12:59:00.909Z,38.61
2022-08-12T13:01:30.968Z,38.62
2022-08-12T13:04:01.862Z,38.54
2022-08-12T13:06:31.455Z,38.47
2022-08-12T13:09:02.476Z,38.99
2022-08-12T13:11:41.472Z,38.47
2022-08-12T13:14:13.045Z,38.43
2022-08-12T13:16:56.484Z,38.42
2022-08-12T13:19:25.428Z,38.42
2022-08-12T13:22:19.963Z,38.49
2022-08-12T13:24:54.641Z,38.46
2022-08-12T13:27:23.370Z,38.33
2022-08-12T13:30:01.992Z,38.22
2022-08-12T13:32:31.313Z,38.21
2022-08-12T13:35:04.674Z,38.15
2022-08-12T13:37:56.585Z,38.33
2022-08-12T13:40:25.013Z,38.27
2022-08-12T13:42:53.221Z,38.27
2022-08-12T13:45:19.759Z,38.29
2022-08-12T13:48:00.265Z,38.38
2022-08-12T13:50:38.319Z,38.36
2022-08-12T13:53:23.893Z,38.41
2022-08-12T13:55:59.606Z,38.40
2022-08-12T13:58:28.536Z,38.45
2022-08-12T14:00:58.128Z,38.43
2022-08-12T14:03:28.691Z,38.52
2022-08-12T14:06:15.406Z,38.36
2022-08-12T14:08:42.896Z,38.44
2022-08-12T14:11:09.646Z,38.44
2022-08-12T14:14:03.976Z,38.40
2022-08-12T14:16:37.347Z,38.39
2022-08-12T14:19:22.049Z,38.35
2022-08-12T14:21:59.526Z,38.28
2022-08-12T14:24:27.371Z,38.22
2022-08-12T14:26:58.866Z,38.21
2022-08-12T14:29:56.251Z,38.28
2022-08-12T14:32:17.581Z,38.43
2022-08-12T14:34:45.974Z,38.40
2022-08-12T14:37:13.067Z,38.55
2022-08-12T14:40:00.461Z,38.53
2022-08-12T14:42:27.942Z,38.63
2022-08-12T14:44:59.405Z,38.68
2022-08-12T14:47:26.756Z,38.71
2022-08-12T14:50:33.763Z,38.75
2022-08-12T14:54:33.659Z,38.78
2022-08-12T14:58:20.353Z,38.46
2022-08-12T15:01:06.939Z,38.34
2022-08-12T15:03:52.036Z,38.30
2022-08-12T15:06:39.232Z,38.44
2022-08-12T15:09:09.241Z,38.44
2022-08-12T15:11:54.629Z,38.43
2022-08-12T15:14:25.328Z,38.45
2022-08-12T15:16:52.314Z,38.32
2022-08-12T15:20:11.804Z,38.37
2022-08-12T15:22:37.234Z,38.33
2022-08-12T15:24:53.629Z,38.27
2022-08-12T15:27:22.349Z,38.38
2022-08-12T15:29:58.133Z,38.40
2022-08-12T15:32:31.816Z,38.36
2022-08-12T15:35:00.525Z,38.40
2022-08-12T15:37:58.955Z,38.38
2022-08-12T15:40:14.089Z,38.33
2022-08-12T15:42:40.673Z,38.29
2022-08-12T15:45:23.785Z,38.24
2022-08-12T15:47:53.143Z,38.27
2022-08-12T15:50:32.361Z,38.31
2022-08-12T15:53:14.230Z,38.38
2022-08-12T15:55:45.891Z,38.39
2022-08-12T15:58:16.921Z,38.37
2022-08-12T16:00:43.856Z,38.43
2022-08-12T16:03:13.517Z,38.43
2022-08-12T16:06:11.844Z,38.48
2022-08-12T16:08:29.817Z,38.50
2022-08-12T16:10:56.915Z,38.46
2022-08-12T16:13:34.255Z,38.46
2022-08-12T16:16:03.466Z,38.46
2022-08-12T16:18:33.372Z,38.35
2022-08-12T16:21:00.404Z,38.29
2022-08-12T16:23:52.124Z,38.23
2022-08-12T16:26:15.137Z,38.15
2022-08-12T16:28:47.420Z,38.08
2022-08-12T16:31:22.674Z,38.01
2022-08-12T16:33:59.308Z,37.93
2022-08-12T16:36:29.488Z,37.91
2022-08-12T16:38:56.006Z,37.90
2022-08-12T16:41:23.044Z,37.78
2022-08-12T16:43:50.480Z,37.79
2022-08-12T16:46:32.452Z,37.67
2022-08-12T16:49:09.325Z,37.69
2022-08-12T16:51:41.920Z,37.57
2022-08-12T16:54:14.133Z,37.42
2022-08-12T16:56:54.734Z,37.33
2022-08-12T16:59:25.486Z,37.24
2022-08-12T17:01:53.798Z,37.11
2022-08-12T17:04:21.010Z,36.92
2022-08-12T17:06:52.603Z,36.80
2022-08-12T17:09:19.714Z,36.66
2022-08-12T17:11:49.587Z,36.49
2022-08-12T17:14:23.049Z,36.35
2022-08-12T17:16:51.788Z,36.22
2022-08-12T17:19:20.494Z,36.06
2022-08-12T17:22:08.818Z,35.92
2022-08-12T17:24:39.969Z,35.69
2022-08-12T17:27:16.456Z,35.61
2022-08-12T17:30:03.280Z,35.51
2022-08-12T17:32:32.873Z,35.36
2022-08-12T17:35:18.694Z,35.31
2022-08-12T17:37:48.376Z,35.12
2022-08-12T17:40:35.255Z,35.02
2022-08-12T17:43:51.990Z,34.80
2022-08-12T17:45:56.168Z,34.60
2022-08-12T17:48:34.399Z,34.37
2022-08-12T17:51:06.846Z,34.23
2022-08-12T17:53:43.430Z,34.07
2022-08-12T17:56:24.027Z,33.92
2022-08-12T17:58:58.172Z,33.75
2022-08-12T18:01:25.527Z,33.59
2022-08-12T18:04:21.512Z,33.42
2022-08-12T18:06:50.455Z,33.25
2022-08-12T18:09:17.705Z,33.03
2022-08-12T18:12:07.739Z,32.83
2022-08-12T18:14:36.877Z,32.56
2022-08-12T18:17:08.503Z,32.39
2022-08-12T18:20:06.134Z,32.13
2022-08-12T18:22:31.753Z,31.95
2022-08-12T18:25:03.722Z,31.71
2022-08-12T18:27:44.832Z,31.46
2022-08-12T18:30:20.742Z,31.15
2022-08-12T18:33:03.397Z,30.87
2022-08-12T18:35:47.134Z,30.56
2022-08-12T18:38:19.937Z,30.19
2022-08-12T18:41:09.803Z,29.92
2022-08-12T18:44:00.100Z,29.61
2022-08-12T18:46:48.745Z,29.36
2022-08-12T18:49:31.844Z,29.00
2022-08-12T18:52:04.385Z,28.72
2022-08-12T18:54:35.156Z,28.46
2022-08-12T18:57:16.110Z,28.24
2022-08-12T19:00:01.582Z,27.99
2022-08-12T19:02:38.904Z,27.76
2022-08-12T19:05:11.365Z,27.54
2022-08-12T19:07:49.404Z,27.34
2022-08-12T19:10:20.545Z,27.16
2022-08-12T19:13:09.404Z,26.95
2022-08-12T19:15:42.268Z,26.76
2022-08-12T19:18:10.958Z,26.55
2022-08-12T19:20:39.306Z,26.47
2022-08-12T19:23:08.230Z,26.29
2022-08-12T19:25:59.769Z,26.16
2022-08-12T19:28:34.685Z,26.00
2022-08-12T19:31:56.827Z,25.82
2022-08-12T19:37:38.613Z,25.50
2022-08-12T19:40:31.121Z,25.36
2022-08-12T19:43:01.566Z,25.15
2022-08-12T19:45:43.653Z,25.08
2022-08-12T19:48:18.145Z,24.96
2022-08-12T19:50:50.497Z,24.84
2022-08-12T19:53:20.165Z,24.73
2022-08-12T19:55:51.834Z,24.61
2022-08-12T19:58:21.129Z,24.50
2022-08-12T20:00:53.602Z,24.39
2022-08-12T20:03:39.114Z,24.24
2022-08-12T20:06:18.344Z,24.15
2022-08-12T20:08:56.532Z,24.06
2022-08-12T20:12:11.624Z,23.97
2022-08-12T20:14:18.595Z,23.87
2022-08-12T20:16:57.777Z,23.76
2022-08-12T20:20:01.603Z,23.70
2022-08-12T20:22:30.008Z,23.60
2022-08-12T20:25:02.016Z,23.48
2022-08-12T20:28:04.525Z,23.45
2022-08-12T20:30:20.221Z,23.33
2022-08-12T20:32:56.925Z,23.45
2022-08-12T20:35:25.213Z,23.26
2022-08-12T20:38:26.612Z,23.16
2022-08-12T20:40:54.324Z,23.10
2022-08-12T20:43:24.102Z,23.01
2022-08-12T20:45:57.474Z,22.93
2022-08-12T20:48:25.483Z,22.86
2022-08-12T20:50:55.210Z,22.80
2022-08-12T20:53:27.801Z,22.72
2022-08-12T20:56:00.369Z,22.66
2022-08-12T20:58:28.094Z,22.59
2022-08-12T21:00:57.405Z,22.51
2022-08-12T21:03:52.731Z,22.46
2022-08-12T21:06:43.642Z,22.40
2022-08-12T21:09:10.406Z,22.31
2022-08-12T21:11:37.197Z,22.22
2022-08-12T21:14:04.512Z,22.16
2022-08-12T21:16:39.014Z,22.12
2022-08-12T21:19:08.154Z,22.03
2022-08-12T21:21:49.794Z,21.99
2022-08-12T21:24:17.711Z,21.91
2022-08-12T21:26:53.270Z,21.88
2022-08-12T21:29:20.317Z,21.83
2022-08-12T21:32:36.696Z,21.75
2022-08-12T21:34:34.037Z,21.71
2022-08-12T21:37:12.881Z,21.66
2022-08-12T21:39:39.970Z,21.59
2022-08-12T21:42:18.626Z,21.56
2022-08-12T21:45:45.337Z,21.55
2022-08-12T21:47:34.390Z,21.50
2022-08-12T21:50:04.218Z,21.47
2022-08-12T21:52:41.204Z,21.44
2022-08-12T21:55:17.891Z,21.40
2022-08-12T21:57:54.529Z,21.37
2022-08-12T22:00:36.798Z,21.33
2022-08-12T22:03:30.376Z,21.30
2022-08-12T22:06:31.003Z,21.25
2022-08-12T22:09:16.437Z,21.19
2022-08-12T22:11:56.227Z,21.14
2022-08-12T22:14:25.676Z,21.10
2022-08-12T22:16:55.751Z,21.06
2022-08-12T22:19:23.247Z,21.13
2022-08-12T22:21:53.280Z,21.00
2022-08-12T22:24:27.214Z,20.87
2022-08-12T22:27:08.278Z,20.83
2022-08-12T22:30:07.199Z,20.83
2022-08-12T22:32:33.985Z,20.78
2022-08-12T22:35:23.078Z,20.73
2022-08-12T22:37:50.681Z,20.79
2022-08-12T22:40:20.309Z,20.64
2022-08-12T22:43:06.308Z,20.58
2022-08-12T22:45:58.762Z,20.54
2022-08-12T22:48:26.497Z,20.48
2022-08-12T22:50:59.137Z,20.43
2022-08-12T22:53:26.237Z,20.34
2022-08-12T22:56:06.674Z,20.36
2022-08-12T22:58:36.548Z,20.33
2022-08-12T23:01:03.967Z,20.28
2022-08-12T23:03:47.925Z,20.25
2022-08-12T23:06:19.733Z,20.19
2022-08-12T23:08:46.646Z,20.15
2022-08-12T23:11:14.445Z,20.11
2022-08-12T23:13:47.213Z,20.02
2022-08-12T23:16:28.455Z,19.98
2022-08-12T23:18:59.885Z,19.99
2022-08-12T23:22:04.362Z,19.94
2022-08-12T23:24:16.773Z,19.91
2022-08-12T23:27:03.437Z,19.87
2022-08-12T23:29:43.028Z,19.83
2022-08-12T23:32:13.469Z,19.78
2022-08-12T23:35:02.570Z,19.75
2022-08-12T23:37:46.664Z,19.73
2022-08-12T23:40:21.152Z,19.70
2022-08-12T23:42:48.809Z,19.63
2022-08-12T23:45:20.767Z,19.61
2022-08-12T23:47:58.382Z,19.58
2022-08-12T23:50:33.433Z,19.53
2022-08-12T23:53:03.260Z,19.52
2022-08-12T23:55:35.789Z,19.48
2022-08-12T23:58:20.693Z,19.48
